Time;durP1;ratioP1;P1;durP2;ratioP2;P2;SDS_P1;SDS_P2;PMS_P1;PMS_P2;Temp;Humidity;BMP_temperature;BMP_pressure;BME280_temperature;BME280_humidity;BME280_pressure;Samples;Min_cycle;Max_cycle;Signal;HPM_P1;HPM_P2
2023/01/21 00:02:17;;;;;;;1999.90;999.90;;;-0.90;99.90;;;;;;5054572;28;20492;-72
2023/01/21 00:04:42;;;;;;;1999.90;999.90;;;-0.90;99.90;;;;;;5054682;28;20175;-72
2023/01/21 00:07:08;;;;;;;1999.90;999.90;;;-0.90;99.90;;;;;;5054471;28;20168;-72
2023/01/21 00:09:34;;;;;;;1999.90;999.90;;;-1.00;99.90;;;;;;5054358;28;20218;-72
2023/01/21 00:12:02;;;;;;;1999.90;999.90;;;-0.90;99.90;;;;;;5054008;28;20194;-72
2023/01/21 00:14:29;;;;;;;1999.90;999.90;;;-0.90;99.90;;;;;;5054337;28;20166;-71
2023/01/21 00:16:57;;;;;;;1999.90;999.90;;;-1.00;99.90;;;;;;5054233;28;20187;-72
2023/01/21 00:19:23;;;;;;;1999.90;999.90;;;-1.00;99.90;;;;;;5054097;28;20694;-72
2023/01/21 00:21:49;;;;;;;1999.90;999.90;;;-1.10;99.90;;;;;;5054235;28;20238;-72
2023/01/21 00:24:14;;;;;;;1999.90;999.90;;;-1.00;99.90;;;;;;5054145;28;20215;-73
2023/01/21 00:26:40;;;;;;;1999.90;999.90;;;-1.00;99.90;;;;;;5054421;28;20587;-71
2023/01/21 00:29:05;;;;;;;1999.90;999.90;;;-1.00;99.90;;;;;;5053947;28;20164;-72
2023/01/21 00:31:31;;;;;;;1999.90;999.90;;;-1.00;99.90;;;;;;5054149;28;20586;-72
2023/01/21 00:33:57;;;;;;;1999.90;999.90;;;-1.10;99.90;;;;;;5053952;28;20281;-71
2023/01/21 00:36:28;;;;;;;1999.90;999.90;;;-1.10;99.90;;;;;;5053917;28;20186;-72
2023/01/21 00:38:54;;;;;;;1999.90;999.90;;;-1.10;99.90;;;;;;5053852;28;20259;-71
2023/01/21 00:41:20;;;;;;;1999.90;999.90;;;-1.10;99.90;;;;;;5053895;28;20207;-71
2023/01/21 00:43:45;;;;;;;1999.90;999.90;;;-1.10;99.90;;;;;;5053690;28;20230;-70
2023/01/21 00:46:11;;;;;;;1999.90;999.90;;;-1.10;99.90;;;;;;5053766;28;20250;-70
2023/01/21 00:48:36;;;;;;;1999.90;999.90;;;-1.10;99.90;;;;;;5053737;28;20168;-70
2023/01/21 00:51:02;;;;;;;1999.90;999.90;;;-1.10;99.90;;;;;;5053536;28;20168;-70
2023/01/21 00:53:33;;;;;;;1999.90;999.90;;;-1.10;99.90;;;;;;5053912;28;20669;-71
2023/01/21 00:56:00;;;;;;;1999.90;999.90;;;-1.10;99.90;;;;;;5053713;28;20790;-71
2023/01/21 00:58:26;;;;;;;1999.90;999.90;;;-1.10;99.90;;;;;;5053639;28;20172;-70
2023/01/21 01:01:03;;;;;;;1999.90;999.90;;;-1.10;99.90;;;;;;5053289;28;20191;-70
2023/01/21 01:03:30;;;;;;;1999.90;999.90;;;-1.10;99.90;;;;;;5053369;28;20691;-70
2023/01/21 01:06:04;;;;;;;1999.90;999.90;;;-1.10;99.90;;;;;;5053398;28;20190;-70
2023/01/21 01:08:31;;;;;;;1999.90;999.90;;;-1.20;99.90;;;;;;5053406;28;20258;-70
2023/01/21 01:10:56;;;;;;;1999.90;999.90;;;-1.20;99.90;;;;;;5053191;28;20175;-70
2023/01/21 01:13:22;;;;;;;1999.90;999.90;;;-1.20;99.90;;;;;;5053137;28;20219;-70
2023/01/21 01:15:51;;;;;;;1999.90;999.90;;;-1.20;99.90;;;;;;5053273;28;20535;-70
2023/01/21 01:18:16;;;;;;;1999.90;999.90;;;-1.20;99.90;;;;;;5053413;28;20206;-70
2023/01/21 01:20:43;;;;;;;1999.90;999.90;;;-1.20;99.90;;;;;;5052987;28;20203;-71
2023/01/21 01:23:08;;;;;;;1999.90;999.90;;;-1.10;99.90;;;;;;5053008;28;20433;-70
2023/01/21 01:25:36;;;;;;;1999.90;999.90;;;-1.20;99.90;;;;;;5052259;28;20171;-70
2023/01/21 01:28:02;;;;;;;1999.90;999.90;;;-1.10;99.90;;;;;;5052838;28;20728;-70
2023/01/21 01:30:28;;;;;;;1999.90;999.90;;;-1.10;99.90;;;;;;5052775;28;20571;-70
2023/01/21 01:32:54;;;;;;;1999.90;999.90;;;-1.10;99.90;;;;;;5052896;28;20187;-70
2023/01/21 01:35:19;;;;;;;1999.90;999.90;;;-1.20;99.90;;;;;;5052936;28;20182;-70
2023/01/21 01:37:45;;;;;;;1999.90;999.90;;;-1.20;99.90;;;;;;5052719;28;20647;-70
2023/01/21 01:40:11;;;;;;;1999.90;999.90;;;-1.20;99.90;;;;;;5052614;28;20710;-71
2023/01/21 01:42:37;;;;;;;1999.90;999.90;;;-1.20;99.90;;;;;;5052345;28;20566;-70
2023/01/21 01:45:16;;;;;;;1999.90;999.90;;;-1.20;99.90;;;;;;5052792;28;20180;-70
2023/01/21 01:47:58;;;;;;;1999.90;999.90;;;-1.30;99.90;;;;;;5052580;28;20544;-70
2023/01/21 01:50:29;;;;;;;1999.90;999.90;;;-1.30;99.90;;;;;;5052345;28;20194;-70
2023/01/21 01:52:58;;;;;;;1999.90;999.90;;;-1.40;99.90;;;;;;5052906;28;20191;-70
2023/01/21 01:55:24;;;;;;;1999.90;999.90;;;-1.40;99.90;;;;;;5052511;28;20183;-71
2023/01/21 01:57:53;;;;;;;1999.90;999.90;;;-1.50;99.90;;;;;;5052357;28;20633;-71
2023/01/21 02:00:19;;;;;;;1999.90;999.90;;;-1.50;99.90;;;;;;5052167;28;20195;-71
2023/01/21 02:03:43;;;;;;;1999.90;999.90;;;-1.40;99.90;;;;;;5052300;28;20219;-71
2023/01/21 02:05:34;;;;;;;1999.90;999.90;;;-1.40;99.90;;;;;;5052138;28;20178;-70
2023/01/21 02:08:01;;;;;;;1999.90;999.90;;;-1.50;99.90;;;;;;5052145;28;20164;-71
2023/01/21 02:10:26;;;;;;;1999.90;999.90;;;-1.40;99.90;;;;;;5051995;28;20627;-71
2023/01/21 02:12:52;;;;;;;1999.90;999.90;;;-1.50;99.90;;;;;;5052163;28;20270;-71
2023/01/21 02:15:18;;;;;;;1999.90;999.90;;;-1.40;99.90;;;;;;5052211;28;20172;-70
2023/01/21 02:18:08;;;;;;;1999.90;999.90;;;-1.50;99.90;;;;;;5052065;28;20410;-71
2023/01/21 02:21:02;;;;;;;1999.90;999.90;;;-1.40;99.90;;;;;;5051827;28;20240;-71
2023/01/21 02:23:48;;;;;;;1999.90;999.90;;;-1.40;99.90;;;;;;5051981;28;20187;-71
2023/01/21 02:26:54;;;;;;;1999.90;999.90;;;-2.40;99.90;;;;;;5051955;28;20175;-70
2023/01/21 02:29:34;;;;;;;1999.90;999.90;;;-1.50;99.90;;;;;;5051959;28;20168;-70
2023/01/21 02:32:26;;;;;;;1999.90;999.90;;;-1.50;99.90;;;;;;5051934;28;20221;-70
2023/01/21 02:34:55;;;;;;;1999.90;999.90;;;-1.50;99.90;;;;;;5051998;28;20174;-70
2023/01/21 02:37:30;;;;;;;1999.90;999.90;;;-1.50;99.90;;;;;;5051860;28;20164;-70
2023/01/21 02:40:05;;;;;;;1999.90;999.90;;;-1.50;99.90;;;;;;5051683;28;20198;-70
2023/01/21 02:42:55;;;;;;;1999.90;999.90;;;-1.50;99.90;;;;;;5051652;28;20183;-70
2023/01/21 02:45:32;;;;;;;1999.90;999.90;;;-1.50;99.90;;;;;;5051854;28;20176;-70
2023/01/21 02:48:15;;;;;;;1999.90;999.90;;;-1.40;99.90;;;;;;5051861;28;20254;-70
2023/01/21 02:50:48;;;;;;;1999.90;999.90;;;-1.40;99.90;;;;;;5051685;28;20175;-70
2023/01/21 02:53:35;;;;;;;1999.90;999.90;;;-1.40;99.90;;;;;;5051817;28;20274;-72
2023/01/21 02:56:06;;;;;;;1999.90;999.90;;;-1.40;99.90;;;;;;5051778;28;20706;-70
2023/01/21 02:58:36;;;;;;;1999.90;999.90;;;-1.40;99.90;;;;;;5051862;28;20171;-70
2023/01/21 03:01:26;;;;;;;1999.90;999.90;;;-1.40;99.90;;;;;;5051477;28;20253;-70
2023/01/21 03:03:58;;;;;;;1999.90;999.90;;;-1.50;99.90;;;;;;5051585;28;20313;-70
2023/01/21 03:06:51;;;;;;;1999.90;999.90;;;-1.50;99.90;;;;;;5051550;28;20687;-70
2023/01/21 03:09:18;;;;;;;1999.90;999.90;;;-1.50;99.90;;;;;;5051524;28;20175;-70
2023/01/21 03:11:55;;;;;;;1999.90;999.90;;;-1.50;99.90;;;;;;5051649;28;20637;-70
2023/01/21 03:17:35;;;;;;;1999.90;999.90;;;-1.50;99.90;;;;;;5051518;28;20202;-70
2023/01/21 03:20:15;;;;;;;1999.90;999.90;;;-1.40;99.90;;;;;;5051374;28;20236;-70
2023/01/21 03:22:43;;;;;;;1999.90;999.90;;;-1.50;99.90;;;;;;5051368;28;20180;-70
2023/01/21 03:25:12;;;;;;;1999.90;999.90;;;-1.40;99.90;;;;;;5051423;28;20164;-70
2023/01/21 03:27:41;;;;;;;1999.90;999.90;;;-1.50;99.90;;;;;;5051488;28;20544;-70
2023/01/21 03:30:16;;;;;;;1999.90;999.90;;;-1.60;99.90;;;;;;5051257;28;20171;-70
2023/01/21 03:32:47;;;;;;;1999.90;999.90;;;-1.60;99.90;;;;;;5051429;28;20215;-71
2023/01/21 03:35:16;;;;;;;1999.90;999.90;;;-1.70;99.90;;;;;;5051343;28;20167;-71
2023/01/21 03:37:59;;;;;;;1999.90;999.90;;;-1.70;99.90;;;;;;5051242;28;20172;-71
2023/01/21 03:40:31;;;;;;;1999.90;999.90;;;-1.70;99.90;;;;;;5051075;28;20278;-71
2023/01/21 03:42:57;;;;;;;1999.90;999.90;;;-1.80;99.90;;;;;;5051078;28;20206;-71
2023/01/21 03:45:30;;;;;;;1999.90;999.90;;;-1.80;99.90;;;;;;5051328;28;20168;-71
2023/01/21 03:48:03;;;;;;;1999.90;999.90;;;-1.80;99.90;;;;;;5052630;28;20199;-71
2023/01/21 03:50:36;;;;;;;1999.90;999.90;;;-1.80;99.90;;;;;;5054699;28;20204;-71
2023/01/21 03:53:02;;;;;;;1999.90;999.90;;;-1.70;99.90;;;;;;5054790;28;20198;-71
2023/01/21 03:55:28;;;;;;;1999.90;999.90;;;-1.80;99.90;;;;;;5054833;28;20171;-71
2023/01/21 03:57:53;;;;;;;1999.90;999.90;;;-1.80;99.90;;;;;;5054592;28;20407;-71
2023/01/21 04:00:19;;;;;;;1999.90;999.90;;;-1.70;99.90;;;;;;5054419;28;20187;-71
2023/01/21 04:02:45;;;;;;;1999.90;999.90;;;-1.80;99.90;;;;;;5054805;28;20201;-72
2023/01/21 04:05:12;;;;;;;1999.90;999.90;;;-1.80;99.90;;;;;;5054626;28;20199;-74
2023/01/21 04:07:38;;;;;;;1999.90;999.90;;;-1.70;99.90;;;;;;5054370;28;20179;-73
2023/01/21 04:10:04;;;;;;;1999.90;999.90;;;-1.80;99.90;;;;;;5054316;28;20180;-73
2023/01/21 04:12:30;;;;;;;1999.90;999.90;;;-1.80;99.90;;;;;;5054412;28;20200;-73
2023/01/21 04:14:57;;;;;;;1999.90;999.90;;;-1.80;99.90;;;;;;5054411;28;20176;-72
2023/01/21 04:17:22;;;;;;;1999.90;999.90;;;-1.80;99.90;;;;;;5054485;28;20698;-72
2023/01/21 04:19:48;;;;;;;1999.90;999.90;;;-1.80;99.90;;;;;;5054065;28;20180;-73
2023/01/21 04:22:13;;;;;;;1999.90;999.90;;;-1.80;99.90;;;;;;5054277;28;20600;-73
2023/01/21 04:24:39;;;;;;;1999.90;999.90;;;-1.80;99.90;;;;;;5054263;28;20172;-73
2023/01/21 04:27:04;;;;;;;1999.90;999.90;;;-1.90;99.90;;;;;;5054064;28;20202;-73
2023/01/21 04:29:30;;;;;;;1999.90;999.90;;;-1.80;99.90;;;;;;5053962;28;20215;-73
2023/01/21 04:31:55;;;;;;;1999.90;999.90;;;-1.80;99.90;;;;;;5054102;28;20226;-73
2023/01/21 04:34:21;;;;;;;1999.90;999.90;;;-1.80;99.90;;;;;;5054038;28;20570;-73
2023/01/21 04:36:46;;;;;;;1999.90;999.90;;;-1.80;99.90;;;;;;5053917;28;20175;-73
2023/01/21 04:39:12;;;;;;;1999.90;999.90;;;-1.80;99.90;;;;;;5053785;28;20250;-73
2023/01/21 04:41:38;;;;;;;1999.90;999.90;;;-1.80;99.90;;;;;;5053799;28;20733;-73
2023/01/21 04:44:03;;;;;;;1999.90;999.90;;;-1.80;99.90;;;;;;5053659;28;20215;-73
2023/01/21 04:46:29;;;;;;;1999.90;999.90;;;-1.80;99.90;;;;;;5053784;28;20640;-73
2023/01/21 04:48:54;;;;;;;1999.90;999.90;;;-1.80;99.90;;;;;;5053556;28;20179;-73
2023/01/21 04:51:20;;;;;;;1999.90;999.90;;;-1.90;99.90;;;;;;5053735;28;20179;-73
2023/01/21 04:53:45;;;;;;;1999.90;999.90;;;-1.90;99.90;;;;;;5053563;28;20219;-73
2023/01/21 04:56:11;;;;;;;1999.90;999.90;;;-1.90;99.90;;;;;;5053614;28;20195;-73
2023/01/21 04:58:37;;;;;;;1999.90;999.90;;;;;;;;;;5053614;28;20178;-73
2023/01/21 05:01:02;;;;;;;1999.90;999.90;;;-1.90;99.90;;;;;;5053326;28;20203;-73
2023/01/21 05:03:28;;;;;;;1999.90;999.90;;;-2.00;99.90;;;;;;5053445;28;20767;-73
2023/01/21 05:05:54;;;;;;;1999.90;999.90;;;-2.00;99.90;;;;;;5053405;28;20172;-73
2023/01/21 05:08:19;;;;;;;1999.90;999.90;;;-2.00;99.90;;;;;;5053398;28;20693;-73
2023/01/21 05:10:45;;;;;;;1999.90;999.90;;;-2.00;99.90;;;;;;5053201;28;20172;-73
2023/01/21 05:13:10;;;;;;;1999.90;999.90;;;-2.00;99.90;;;;;;5053259;28;20286;-73
2023/01/21 05:15:36;;;;;;;1999.90;999.90;;;-1.90;99.90;;;;;;5053322;28;20175;-73
2023/01/21 05:18:01;;;;;;;1999.90;999.90;;;-2.00;99.90;;;;;;5053116;28;20218;-73
2023/01/21 05:20:27;;;;;;;1999.90;999.90;;;-2.00;99.90;;;;;;5052909;28;20244;-73
2023/01/21 05:22:52;;;;;;;1999.90;999.90;;;-2.10;99.90;;;;;;5053034;28;20203;-73
2023/01/21 05:25:18;;;;;;;1999.90;999.90;;;-2.10;99.90;;;;;;5053104;28;20176;-73
2023/01/21 05:27:53;;;;;;;1999.90;999.90;;;-2.10;99.90;;;;;;5052960;28;20171;-72
2023/01/21 05:30:19;;;;;;;1999.90;999.90;;;-2.10;99.90;;;;;;5052793;28;20209;-72
2023/01/21 05:32:52;;;;;;;1999.90;999.90;;;-2.10;99.90;;;;;;5052936;28;20222;-72
2023/01/21 05:35:20;;;;;;;1999.90;999.90;;;-2.20;99.90;;;;;;5052923;28;20386;-72
2023/01/21 05:37:46;;;;;;;1999.90;999.90;;;-2.30;99.90;;;;;;5052781;28;20217;-72
2023/01/21 05:40:13;;;;;;;1999.90;999.90;;;-2.40;99.90;;;;;;5052658;28;20602;-71
2023/01/21 05:42:39;;;;;;;1999.90;999.90;;;-2.40;99.90;;;;;;5052593;28;20238;-72
2023/01/21 05:45:05;;;;;;;1999.90;999.90;;;-2.40;99.90;;;;;;5052777;28;20271;-72
2023/01/21 05:47:31;;;;;;;1999.90;999.90;;;-2.40;99.90;;;;;;5052726;28;20172;-72
2023/01/21 05:49:56;;;;;;;1999.90;999.90;;;-2.50;99.90;;;;;;5052529;28;20775;-72
2023/01/21 05:52:22;;;;;;;1999.90;999.90;;;-2.60;99.90;;;;;;5052484;28;20191;-72
2023/01/21 05:54:47;;;;;;;1999.90;999.90;;;-2.70;99.90;;;;;;5052632;28;20171;-72
2023/01/21 05:57:13;;;;;;;1999.90;999.90;;;-2.70;99.90;;;;;;5052437;28;20249;-72
2023/01/21 05:59:38;;;;;;;1999.90;999.90;;;-2.70;99.90;;;;;;5052487;28;20182;-72
2023/01/21 06:02:04;;;;;;;1999.90;999.90;;;-2.80;99.90;;;;;;5052366;28;20214;-72
2023/01/21 06:04:29;;;;;;;1999.90;999.90;;;-2.90;99.90;;;;;;5052411;28;20163;-72
2023/01/21 06:06:56;;;;;;;1999.90;999.90;;;-2.80;99.90;;;;;;5052320;28;20613;-72
2023/01/21 06:09:22;;;;;;;1999.90;999.90;;;-2.80;99.90;;;;;;5052177;28;20175;-72
2023/01/21 06:11:47;;;;;;;1999.90;999.90;;;-2.80;99.90;;;;;;5051878;28;20167;-72
2023/01/21 06:14:13;;;;;;;1999.90;999.90;;;-2.80;99.90;;;;;;5052177;28;20800;-72
2023/01/21 06:16:39;;;;;;;1999.90;999.90;;;-2.90;99.90;;;;;;5052168;28;20251;-72
2023/01/21 06:19:04;;;;;;;1999.90;999.90;;;-2.90;99.90;;;;;;5052083;28;20168;-72
2023/01/21 06:21:30;;;;;;;1999.90;999.90;;;-2.90;99.90;;;;;;5052025;28;20180;-72
2023/01/21 06:23:56;;;;;;;1999.90;999.90;;;-3.00;99.90;;;;;;5052083;28;20262;-72
2023/01/21 06:26:22;;;;;;;1999.90;999.90;;;-3.00;99.90;;;;;;5052243;28;20172;-72
2023/01/21 06:28:47;;;;;;;1999.90;999.90;;;-3.00;99.90;;;;;;5034136;28;20583;-72
2023/01/21 06:31:13;;;;;;;1999.90;999.90;;;-3.00;99.90;;;;;;5052045;28;20210;-72
2023/01/21 06:33:38;;;;;;;1999.90;999.90;;;-2.90;99.90;;;;;;5051982;28;20196;-72
2023/01/21 06:36:04;;;;;;;1999.90;999.90;;;-2.90;99.90;;;;;;5051908;28;20175;-72
2023/01/21 06:38:30;;;;;;;1999.90;999.90;;;-2.90;99.90;;;;;;5052042;28;20625;-72
2023/01/21 06:40:56;;;;;;;1999.90;999.90;;;-2.80;99.90;;;;;;5051693;28;20454;-72
2023/01/21 06:43:21;;;;;;;1999.90;999.90;;;-2.80;99.90;;;;;;5051682;28;20568;-72
2023/01/21 06:45:47;;;;;;;1999.90;999.90;;;-2.80;99.90;;;;;;5051914;28;20163;-72
2023/01/21 06:48:12;;;;;;;1999.90;999.90;;;-2.80;99.90;;;;;;5051798;28;20541;-72
2023/01/21 06:50:38;;;;;;;1999.90;999.90;;;-2.80;99.90;;;;;;5051665;28;20191;-72
2023/01/21 06:53:04;;;;;;;1999.90;999.90;;;-2.70;99.90;;;;;;5051719;28;20187;-73
2023/01/21 06:55:29;;;;;;;1999.90;999.90;;;-2.70;99.90;;;;;;5052102;28;20229;-73
2023/01/21 06:57:55;;;;;;;1999.90;999.90;;;-2.80;99.90;;;;;;5052093;28;20651;-72
2023/01/21 07:00:21;;;;;;;1999.90;999.90;;;-2.80;99.90;;;;;;5052010;28;20562;-72
2023/01/21 07:02:46;;;;;;;1999.90;999.90;;;-2.90;99.90;;;;;;5052346;28;20266;-72
2023/01/21 07:05:13;;;;;;;1999.90;999.90;;;-3.10;99.90;;;;;;5052317;28;20406;-72
2023/01/21 07:07:39;;;;;;;1999.90;999.90;;;-3.40;99.90;;;;;;5052127;28;20222;-72
2023/01/21 07:10:07;;;;;;;1999.90;999.90;;;-3.50;99.90;;;;;;5052578;28;20668;-72
2023/01/21 07:12:33;;;;;;;1999.90;999.90;;;-3.60;99.90;;;;;;5052655;28;20430;-71
2023/01/21 07:14:59;;;;;;;1999.90;999.90;;;-3.50;99.90;;;;;;5052302;28;20294;-72
2023/01/21 07:17:24;;;;;;;1999.90;999.90;;;-3.50;99.90;;;;;;5052408;28;20542;-72
2023/01/21 07:19:50;;;;;;;1999.90;999.90;;;-3.40;99.90;;;;;;5052511;28;20172;-72
2023/01/21 07:22:15;;;;;;;1999.90;999.90;;;-3.40;99.90;;;;;;5053166;28;20168;-72
2023/01/21 07:24:41;;;;;;;1999.90;999.90;;;-3.40;99.90;;;;;;5056562;28;20245;-72
2023/01/21 07:27:06;;;;;;;1999.90;999.90;;;-3.40;99.90;;;;;;5056237;28;20234;-72
2023/01/21 07:29:32;;;;;;;1999.90;999.90;;;-3.40;99.90;;;;;;5055717;28;20187;-72
2023/01/21 07:31:57;;;;;;;1999.90;999.90;;;-3.40;99.90;;;;;;5055775;28;20610;-72
2023/01/21 07:34:23;;;;;;;1999.90;999.90;;;-3.40;99.90;;;;;;5055516;28;20192;-72
2023/01/21 07:36:49;;;;;;;1999.90;999.90;;;-3.40;99.90;;;;;;5055550;28;20191;-72
2023/01/21 07:39:14;;;;;;;1999.90;999.90;;;-3.40;99.90;;;;;;5055163;28;20230;-72
2023/01/21 07:41:40;;;;;;;1999.90;999.90;;;-3.40;99.90;;;;;;5055288;28;20202;-72
2023/01/21 07:44:05;;;;;;;1999.90;999.90;;;-3.40;99.90;;;;;;5055108;28;20695;-72
2023/01/21 07:46:32;;;;;;;1999.90;999.90;;;-3.30;99.90;;;;;;5055386;28;20168;-72
2023/01/21 07:48:57;;;;;;;1999.90;999.90;;;-3.30;99.90;;;;;;5055189;28;20191;-72
2023/01/21 07:51:23;;;;;;;1999.90;999.90;;;-3.20;99.90;;;;;;5055362;28;20175;-72
2023/01/21 07:53:48;;;;;;;1999.90;999.90;;;-3.10;99.90;;;;;;5054786;28;20649;-72
2023/01/21 07:56:15;;;;;;;1999.90;999.90;;;-3.00;99.90;;;;;;5054717;28;20171;-72
2023/01/21 07:58:40;;;;;;;1999.90;999.90;;;-3.00;99.90;;;;;;5054861;28;20168;-71
2023/01/21 08:01:07;;;;;;;1999.90;999.90;;;-2.90;99.90;;;;;;5054573;28;20282;-72
2023/01/21 08:03:37;;;;;;;1999.90;999.90;;;-2.90;99.90;;;;;;5054553;28;20187;-72
2023/01/21 08:06:04;;;;;;;1999.90;999.90;;;-2.80;99.90;;;;;;5054496;28;20179;-71
2023/01/21 08:08:30;;;;;;;1999.90;999.90;;;-2.80;99.90;;;;;;5054524;28;20160;-71
2023/01/21 08:10:56;;;;;;;1999.90;999.90;;;-2.70;99.90;;;;;;5054514;28;20236;-72
2023/01/21 08:13:22;;;;;;;1999.90;999.90;;;-2.60;99.90;;;;;;5054355;28;20426;-72
2023/01/21 08:15:55;;;;;;;1999.90;999.90;;;-2.50;99.90;;;;;;5054528;28;20176;-72
2023/01/21 08:18:22;;;;;;;1999.90;999.90;;;-2.50;99.90;;;;;;5054311;28;20175;-73
2023/01/21 08:20:52;;;;;;;1999.90;999.90;;;-2.50;99.90;;;;;;5036544;28;20674;-73
2023/01/21 08:23:17;;;;;;;1999.90;999.90;;;-2.50;99.90;;;;;;5034198;28;20238;-73
2023/01/21 08:25:43;;;;;;;1999.90;999.90;;;-2.50;99.90;;;;;;5034262;28;20172;-73
2023/01/21 08:28:09;;;;;;;1999.90;999.90;;;-2.40;99.90;;;;;;5034235;28;20235;-73
2023/01/21 08:30:35;;;;;;;1999.90;999.90;;;-2.30;99.90;;;;;;5034015;28;20281;-72
2023/01/21 08:33:00;;;;;;;1999.90;999.90;;;-2.30;99.90;;;;;;5033648;28;20195;-73
2023/01/21 08:35:26;;;;;;;1999.90;999.90;;;-2.20;99.90;;;;;;5034265;28;20172;-72
2023/01/21 08:37:54;;;;;;;1999.90;999.90;;;-2.10;99.90;;;;;;5033994;28;20175;-72
2023/01/21 08:40:20;;;;;;;1999.90;999.90;;;-2.00;99.90;;;;;;5033696;28;20283;-72
2023/01/21 08:42:45;;;;;;;1999.90;999.90;;;-2.10;99.90;;;;;;5033794;28;20283;-73
2023/01/21 08:45:11;;;;;;;1999.90;999.90;;;-2.10;99.90;;;;;;5033917;28;20237;-72
2023/01/21 08:47:36;;;;;;;1999.90;999.90;;;-2.10;99.90;;;;;;5033686;28;20164;-72
2023/01/21 08:50:02;;;;;;;1999.90;999.90;;;-1.90;99.90;;;;;;5033717;28;20306;-72
2023/01/21 08:52:28;;;;;;;1999.90;999.90;;;-1.80;99.90;;;;;;5033827;28;20551;-72
2023/01/21 08:54:53;;;;;;;1999.90;999.90;;;-1.70;99.90;;;;;;5033859;28;20177;-72
2023/01/21 08:57:19;;;;;;;1999.90;999.90;;;-1.60;99.90;;;;;;5033593;28;20171;-72
2023/01/21 08:59:44;;;;;;;1999.90;999.90;;;-1.50;99.90;;;;;;5033449;28;20165;-71
2023/01/21 09:02:11;;;;;;;1999.90;999.90;;;-1.60;99.90;;;;;;5033425;28;20251;-72
2023/01/21 09:04:36;;;;;;;1999.90;999.90;;;-1.70;99.90;;;;;;5033572;28;20267;-71
2023/01/21 09:07:03;;;;;;;1999.90;999.90;;;-1.70;99.90;;;;;;5033370;28;20255;-72
2023/01/21 09:09:28;;;;;;;1999.90;999.90;;;-1.60;99.90;;;;;;5033319;28;20168;-71
2023/01/21 09:11:54;;;;;;;1999.90;999.90;;;-1.50;99.90;;;;;;5033491;28;20581;-71
2023/01/21 09:14:20;;;;;;;1999.90;999.90;;;-1.20;99.90;;;;;;5033289;28;20192;-71
2023/01/21 09:16:49;;;;;;;1999.90;999.90;;;-1.00;99.90;;;;;;5033250;28;20169;-71
2023/01/21 09:19:15;;;;;;;1999.90;999.90;;;-0.70;99.90;;;;;;5033302;28;20642;-71
2023/01/21 09:21:40;;;;;;;1999.90;999.90;;;-0.40;99.90;;;;;;5033154;28;20200;-71
2023/01/21 09:24:06;;;;;;;1999.90;999.90;;;-0.10;99.90;;;;;;5033202;28;20479;-71
2023/01/21 09:26:32;;;;;;;1999.90;999.90;;;0.20;99.90;;;;;;5033444;28;20168;-70
2023/01/21 09:28:59;;;;;;;1999.90;999.90;;;0.50;99.90;;;;;;5033403;28;20400;-71
2023/01/21 09:31:27;;;;;;;1999.90;999.90;;;0.70;99.90;;;;;;5033694;28;20180;-71
2023/01/21 09:33:56;;;;;;;1999.90;999.90;;;0.90;99.90;;;;;;5032950;28;20237;-71
2023/01/21 09:36:28;;;;;;;1999.90;999.90;;;1.00;99.90;;;;;;5032886;28;20630;-71
2023/01/21 09:38:54;;;;;;;1999.90;999.90;;;1.00;99.90;;;;;;5032764;28;20237;-72
2023/01/21 09:41:40;;;;;;;1999.90;999.90;;;1.10;99.90;;;;;;5031818;28;20192;-70
2023/01/21 09:44:24;;;;;;;1999.90;999.90;;;1.00;99.90;;;;;;5036155;28;20445;-71
2023/01/21 09:47:03;;;;;;;1999.90;999.90;;;1.00;99.90;;;;;;5051368;28;20167;-71
2023/01/21 09:49:35;;;;;;;1999.90;999.90;;;0.90;99.90;;;;;;5052413;28;20163;-70
2023/01/21 09:52:04;;;;;;;1999.90;999.90;;;0.80;99.90;;;;;;5052964;28;20203;-71
2023/01/21 09:54:32;;;;;;;1999.90;999.90;;;0.70;99.90;;;;;;5053277;28;20199;-70
2023/01/21 09:57:16;;;;;;;1999.90;999.90;;;0.80;99.90;;;;;;5051824;28;20180;-70
2023/01/21 10:00:07;;;;;;;1999.90;999.90;;;0.70;99.90;;;;;;5051956;28;20168;-70
2023/01/21 10:02:56;;;;;;;1999.90;999.90;;;0.80;99.90;;;;;;5051948;28;20195;-71
2023/01/21 10:05:53;;;;;;;1999.90;999.90;;;0.80;99.90;;;;;;5051246;28;20208;-71
2023/01/21 10:08:44;;;;;;;1999.90;999.90;;;0.80;99.90;;;;;;5052786;28;20171;-71
2023/01/21 10:11:47;;;;;;;1999.90;999.90;;;0.80;99.90;;;;;;5052132;28;20175;-71
2023/01/21 10:14:28;;;;;;;1999.90;999.90;;;0.80;99.90;;;;;;5052527;28;20187;-72
2023/01/21 10:17:10;;;;;;;1999.90;999.90;;;0.80;99.90;;;;;;5052312;28;20182;-72
2023/01/21 10:19:42;;;;;;;1999.90;999.90;;;0.80;99.90;;;;;;5051184;28;20175;-72
2023/01/21 10:30:35;;;;;;;1999.90;999.90;;;0.70;99.90;;;;;;3186744;26;20571;-72
2023/01/21 10:33:01;;;;;;;1999.90;999.90;;;2.60;99.90;;;;;;4989842;28;20189;-71
2023/01/21 10:36:09;;;;;;;1999.90;999.90;;;0.70;99.90;;;;;;4990300;28;20341;-72
2023/01/21 10:38:40;;;;;;;1999.90;999.90;;;0.70;99.90;;;;;;5017594;28;20645;-72
2023/01/21 10:41:27;;;;;;;1999.90;999.90;;;0.80;99.90;;;;;;5051231;28;20203;-71
2023/01/21 10:44:13;;;;;;;1999.90;999.90;;;0.90;99.90;;;;;;5052670;28;20176;-72
2023/01/21 10:46:41;;;;;;;1999.90;999.90;;;1.00;99.90;;;;;;5052602;28;20187;-71
2023/01/21 10:49:07;;;;;;;1999.90;999.90;;;1.00;99.90;;;;;;5051454;28;20198;-71
2023/01/21 10:51:45;;;;;;;1999.90;999.90;;;1.10;99.90;;;;;;5051694;28;20172;-70
2023/01/21 10:54:23;;;;;;;1999.90;999.90;;;1.00;99.90;;;;;;5051949;28;20214;-71
2023/01/21 10:57:02;;;;;;;1999.90;999.90;;;1.10;99.90;;;;;;5052531;28;20164;-71
2023/01/21 10:59:32;;;;;;;1999.90;999.90;;;1.20;99.90;;;;;;5055470;28;20171;-71
2023/01/21 11:02:19;;;;;;;1999.90;999.90;;;1.20;99.90;;;;;;5055600;28;20234;-71
2023/01/21 11:04:45;;;;;;;1999.90;999.90;;;1.30;99.90;;;;;;5055170;28;20664;-71
2023/01/21 11:07:14;;;;;;;1999.90;999.90;;;1.30;99.90;;;;;;5055156;28;20258;-71
2023/01/21 11:09:43;;;;;;;1999.90;999.90;;;1.30;99.90;;;;;;5055371;28;20410;-71
2023/01/21 11:12:18;;;;;;;1999.90;999.90;;;1.30;99.90;;;;;;5054886;28;20180;-71
2023/01/21 11:14:55;;;;;;;1999.90;999.90;;;1.30;99.90;;;;;;5055347;28;20175;-71
2023/01/21 11:17:30;;;;;;;1999.90;999.90;;;1.50;99.90;;;;;;5055368;28;20197;-71
2023/01/21 11:20:03;;;;;;;1999.90;999.90;;;1.20;99.90;;;;;;5054506;28;20531;-71
2023/01/21 11:22:31;;;;;;;1999.90;999.90;;;1.60;99.90;;;;;;5055042;28;20203;-71
2023/01/21 11:24:58;;;;;;;1999.90;999.90;;;1.50;99.90;;;;;;5054763;28;20171;-71
2023/01/21 11:27:37;;;;;;;1999.90;999.90;;;1.50;99.90;;;;;;5054581;28;20653;-71
2023/01/21 11:30:04;;;;;;;1999.90;999.90;;;1.60;99.90;;;;;;5054829;28;20179;-71
2023/01/21 11:32:30;;;;;;;1999.90;999.90;;;1.50;99.90;;;;;;5054679;28;20187;-71
2023/01/21 11:35:08;;;;;;;1999.90;999.90;;;1.50;99.90;;;;;;5055422;28;20160;-71
2023/01/21 11:37:36;;;;;;;1999.90;999.90;;;1.60;99.90;;;;;;5055157;28;20183;-71
2023/01/21 11:40:14;;;;;;;1999.90;999.90;;;1.60;99.90;;;;;;5054930;28;20171;-71
2023/01/21 11:42:54;;;;;;;1999.90;999.90;;;3.40;99.90;;;;;;5055039;28;20183;-71
2023/01/21 11:45:35;;;;;;;1999.90;999.90;;;1.70;99.90;;;;;;5055097;28;20249;-71
2023/01/21 11:48:12;;;;;;;1999.90;999.90;;;1.70;99.90;;;;;;5055084;28;20168;-71
2023/01/21 11:50:38;;;;;;;1999.90;999.90;;;1.70;99.90;;;;;;5055064;28;20176;-71
2023/01/21 11:53:07;;;;;;;1999.90;999.90;;;1.80;99.90;;;;;;5055133;28;20192;-71
2023/01/21 11:55:53;;;;;;;1999.90;999.90;;;1.80;99.90;;;;;;5055002;28;20179;-71
2023/01/21 11:58:23;;;;;;;1999.90;999.90;;;1.90;99.90;;;;;;5055220;28;20183;-71
2023/01/21 12:00:52;;;;;;;1999.90;999.90;;;1.90;99.90;;;;;;5054872;28;20657;-71
2023/01/21 12:03:23;;;;;;;1999.90;999.90;;;1.90;99.90;;;;;;5054646;28;20191;-71
2023/01/21 12:05:51;;;;;;;1999.90;999.90;;;2.00;99.90;;;;;;5054809;28;20163;-71
2023/01/21 12:08:24;;;;;;;1999.90;999.90;;;2.00;99.90;;;;;;5054606;28;20183;-71
2023/01/21 12:10:51;;;;;;;1999.90;999.90;;;1.90;99.90;;;;;;5054614;28;20178;-71
2023/01/21 12:13:43;;;;;;;1999.90;999.90;;;1.90;99.90;;;;;;5054783;28;20196;-71
2023/01/21 12:16:17;;;;;;;1999.90;999.90;;;2.00;99.90;;;;;;5008522;28;20194;-71
2023/01/21 12:19:06;;;;;;;1999.90;999.90;;;2.00;99.90;;;;;;5054406;28;20246;-71
2023/01/21 12:21:57;;;;;;;1999.90;999.90;;;1.90;99.90;;;;;;5054659;28;20187;-71
2023/01/21 12:24:35;;;;;;;1999.90;999.90;;;2.00;99.90;;;;;;5054171;28;20179;-71
2023/01/21 12:27:25;;;;;;;1999.90;999.90;;;1.90;99.90;;;;;;5054193;28;20637;-71